createdAt,value
2019-03-20T00:00:53.347Z,63.30
2019-03-20T00:03:24.416Z,63.40
2019-03-20T00:05:55.367Z,63.60
2019-03-20T00:08:26.474Z,63.60
2019-03-20T00:10:57.666Z,64.30
2019-03-20T00:13:28.710Z,63.40
2019-03-20T00:15:59.927Z,63.50
2019-03-20T00:18:31.023Z,63.70
2019-03-20T00:21:02.001Z,63.60
2019-03-20T00:23:32.993Z,63.60
2019-03-20T00:26:04.023Z,63.70
2019-03-20T00:28:35.025Z,64.00
2019-03-20T00:31:06.169Z,63.90
2019-03-20T00:33:37.466Z,63.80
2019-03-20T00:36:08.752Z,64.10
2019-03-20T00:38:39.830Z,64.10
2019-03-20T00:41:10.760Z,64.20
2019-03-20T00:43:41.741Z,64.10
2019-03-20T00:46:12.655Z,64.10
2019-03-20T00:48:43.666Z,64.10
2019-03-20T00:51:14.603Z,64.00
2019-03-20T00:53:45.531Z,64.20
2019-03-20T00:56:16.675Z,64.40
2019-03-20T00:58:48.837Z,64.50
2019-03-20T01:01:19.839Z,64.60
2019-03-20T01:03:50.771Z,64.60
2019-03-20T01:06:21.862Z,65.30
2019-03-20T01:08:52.806Z,64.60
2019-03-20T01:11:23.661Z,64.50
2019-03-20T01:13:54.584Z,64.50
2019-03-20T01:16:25.597Z,64.30
2019-03-20T01:18:56.655Z,64.20
2019-03-20T01:21:27.802Z,64.20
2019-03-20T01:23:58.918Z,64.00
2019-03-20T01:26:30.054Z,64.20
2019-03-20T01:29:01.074Z,64.20
2019-03-20T01:31:32.035Z,64.40
2019-03-20T01:34:03.103Z,64.80
2019-03-20T01:36:34.132Z,64.90
2019-03-20T01:39:08.709Z,64.90
2019-03-20T01:41:39.745Z,65.30
2019-03-20T01:44:10.715Z,65.40
2019-03-20T01:46:41.581Z,65.40
2019-03-20T01:49:12.569Z,65.60
2019-03-20T01:51:43.454Z,65.60
2019-03-20T01:54:14.402Z,65.40
2019-03-20T01:56:45.315Z,65.20
2019-03-20T01:59:16.379Z,65.20
2019-03-20T02:01:47.546Z,65.90
2019-03-20T02:04:18.632Z,65.30
2019-03-20T02:06:49.660Z,66.00
2019-03-20T02:09:20.708Z,65.30
2019-03-20T02:11:51.703Z,65.10
2019-03-20T02:14:23.657Z,65.40
2019-03-20T02:16:54.547Z,65.90
2019-03-20T02:19:26.886Z,66.10
2019-03-20T02:21:57.952Z,66.20
2019-03-20T02:24:29.031Z,66.30
2019-03-20T02:27:00.052Z,66.30
2019-03-20T02:29:31.039Z,66.50
2019-03-20T02:32:01.923Z,66.40
2019-03-20T02:34:33.017Z,66.40
2019-03-20T02:37:03.955Z,66.50
2019-03-20T02:39:34.884Z,66.60
2019-03-20T02:42:05.854Z,66.60
2019-03-20T02:44:36.821Z,66.60
2019-03-20T02:47:07.827Z,66.60
2019-03-20T02:49:38.796Z,66.80
2019-03-20T02:52:09.949Z,67.10
2019-03-20T02:54:40.867Z,67.40
2019-03-20T02:57:11.744Z,67.30
2019-03-20T02:59:42.706Z,67.40
2019-03-20T03:02:13.558Z,67.60
2019-03-20T03:04:44.629Z,67.70
2019-03-20T03:07:15.622Z,67.60
2019-03-20T03:09:46.678Z,67.50
2019-03-20T03:12:17.621Z,67.60
2019-03-20T03:14:49.244Z,67.70
2019-03-20T03:17:20.136Z,67.50
2019-03-20T03:19:51.161Z,67.70
2019-03-20T03:22:22.035Z,67.80
2019-03-20T03:24:53.018Z,67.70
2019-03-20T03:27:23.929Z,67.50
2019-03-20T03:29:55.012Z,67.40
2019-03-20T03:32:25.955Z,67.50
2019-03-20T03:34:56.887Z,67.20
2019-03-20T03:37:27.940Z,67.10
2019-03-20T03:39:58.987Z,67.10
2019-03-20T03:42:31.104Z,67.10
2019-03-20T03:45:02.149Z,67.20
2019-03-20T03:47:33.077Z,67.10
2019-03-20T03:50:04.283Z,67.20
2019-03-20T03:52:35.468Z,67.10
2019-03-20T03:55:06.659Z,66.80
2019-03-20T03:57:38.076Z,67.00
2019-03-20T04:00:10.556Z,67.10
2019-03-20T04:02:41.484Z,66.90
2019-03-20T04:05:13.711Z,67.10
2019-03-20T04:07:54.126Z,67.10
2019-03-20T04:10:50.148Z,67.10
2019-03-20T04:13:20.961Z,67.10
2019-03-20T04:15:52.049Z,66.90
2019-03-20T04:18:23.277Z,66.50
2019-03-20T04:20:54.539Z,66.80
2019-03-20T04:23:25.534Z,67.00
2019-03-20T04:25:56.727Z,67.70
2019-03-20T04:28:27.741Z,66.90
2019-03-20T04:30:58.838Z,66.80
2019-03-20T04:33:29.823Z,67.00
2019-03-20T04:36:00.885Z,67.00
2019-03-20T04:38:31.910Z,67.00
2019-03-20T04:41:04.067Z,67.10
2019-03-20T04:43:34.969Z,66.90
2019-03-20T04:46:05.970Z,67.00
2019-03-20T04:48:37.109Z,67.10
2019-03-20T04:51:08.208Z,67.10
2019-03-20T04:53:39.211Z,67.10
2019-03-20T04:56:10.289Z,67.30
2019-03-20T04:58:41.290Z,67.30
2019-03-20T05:01:12.260Z,67.50
2019-03-20T05:03:43.301Z,67.70
2019-03-20T05:06:14.488Z,67.50
2019-03-20T05:08:45.665Z,67.50
2019-03-20T05:11:16.680Z,67.60
2019-03-20T05:13:47.598Z,67.40
2019-03-20T05:16:19.241Z,67.30
2019-03-20T05:18:50.310Z,67.30
2019-03-20T05:21:21.471Z,67.30
2019-03-20T05:23:52.443Z,67.20
2019-03-20T05:26:24.543Z,67.30
2019-03-20T05:28:55.588Z,67.40
2019-03-20T05:31:27.362Z,67.50
2019-03-20T05:33:58.881Z,67.30
2019-03-20T05:36:30.681Z,67.20
2019-03-20T05:39:04.667Z,67.20
2019-03-20T05:41:35.750Z,66.90
2019-03-20T05:44:06.986Z,66.90
2019-03-20T05:46:38.002Z,66.70
2019-03-20T05:49:09.584Z,66.50
2019-03-20T05:51:40.862Z,66.30
2019-03-20T05:54:12.926Z,66.30
2019-03-20T05:56:44.110Z,66.10
2019-03-20T05:59:15.574Z,66.10
2019-03-20T06:01:47.286Z,66.10
2019-03-20T06:04:18.860Z,65.90
2019-03-20T06:06:49.996Z,66.00
2019-03-20T06:09:21.012Z,65.90
2019-03-20T06:11:52.650Z,66.00
2019-03-20T06:14:24.043Z,65.80
2019-03-20T06:16:55.844Z,65.50
2019-03-20T06:19:27.003Z,65.10
2019-03-20T06:22:01.676Z,64.90
2019-03-20T06:24:33.833Z,64.60
2019-03-20T06:27:05.949Z,64.30
2019-03-20T06:29:37.611Z,64.10
2019-03-20T06:32:09.192Z,63.90
2019-03-20T06:34:40.813Z,63.90
2019-03-20T06:37:12.254Z,63.80
2019-03-20T06:39:43.928Z,63.60
2019-03-20T06:42:15.274Z,63.30
2019-03-20T06:44:47.053Z,62.50
2019-03-20T06:47:18.924Z,61.90
2019-03-20T06:49:50.115Z,61.40
2019-03-20T06:52:21.749Z,61.20
2019-03-20T06:54:53.981Z,60.90
2019-03-20T06:57:25.940Z,60.30
2019-03-20T07:00:49.891Z,59.80
2019-03-20T07:03:48.941Z,59.40
2019-03-20T07:07:05.820Z,58.90
2019-03-20T07:09:57.869Z,58.00
2019-03-20T07:12:33.080Z,57.80
2019-03-20T07:15:09.833Z,58.00
2019-03-20T07:17:41.380Z,58.10
2019-03-20T07:20:12.860Z,57.50
2019-03-20T07:22:44.360Z,57.00
2019-03-20T07:25:15.940Z,56.80
2019-03-20T07:27:47.343Z,56.40
2019-03-20T07:30:18.703Z,55.70
2019-03-20T07:32:50.028Z,54.20
2019-03-20T07:35:21.663Z,53.30
2019-03-20T07:37:56.273Z,53.40
2019-03-20T07:40:26.423Z,52.30
2019-03-20T07:43:08.253Z,52.00
2019-03-20T07:45:30.948Z,51.80
2019-03-20T07:48:02.347Z,50.70
2019-03-20T07:50:33.711Z,50.00
2019-03-20T07:53:05.074Z,49.30
2019-03-20T07:55:36.423Z,48.20
2019-03-20T07:58:08.033Z,48.70
2019-03-20T08:00:39.271Z,48.00
2019-03-20T08:03:10.765Z,47.50
2019-03-20T08:05:43.378Z,47.20
2019-03-20T08:08:14.743Z,47.00
2019-03-20T08:10:46.766Z,46.50
2019-03-20T08:13:18.303Z,46.00
2019-03-20T08:15:49.940Z,45.40
2019-03-20T08:18:21.680Z,45.20
2019-03-20T08:20:52.917Z,45.20
2019-03-20T08:23:24.437Z,44.50
2019-03-20T08:25:56.069Z,43.70
2019-03-20T08:28:27.603Z,42.70
2019-03-20T08:30:59.430Z,41.70
2019-03-20T08:33:31.086Z,41.50
2019-03-20T08:36:02.980Z,41.90
2019-03-20T08:38:34.609Z,41.50
2019-03-20T08:41:06.664Z,41.30
2019-03-20T08:43:38.775Z,41.50
2019-03-20T08:46:10.881Z,40.80
2019-03-20T08:48:43.480Z,40.00
2019-03-20T08:51:15.598Z,40.20
2019-03-20T08:53:47.230Z,39.70
2019-03-20T08:56:18.544Z,39.50
2019-03-20T08:58:49.859Z,38.60
2019-03-20T09:01:28.373Z,38.50
2019-03-20T09:03:53.942Z,38.40
2019-03-20T09:06:25.185Z,38.80
2019-03-20T09:08:56.507Z,37.30
2019-03-20T09:11:30.056Z,37.40
2019-03-20T09:14:01.358Z,38.20
2019-03-20T09:16:32.703Z,37.30
2019-03-20T09:19:04.063Z,36.20
2019-03-20T09:21:35.503Z,35.90
2019-03-20T09:24:06.880Z,35.10
2019-03-20T09:26:39.502Z,34.30
2019-03-20T09:29:18.454Z,32.60
2019-03-20T09:31:45.071Z,32.00
2019-03-20T09:34:16.183Z,32.40
2019-03-20T09:36:47.473Z,31.90
2019-03-20T09:39:18.481Z,32.30
2019-03-20T09:41:49.671Z,31.20
2019-03-20T09:44:20.737Z,29.50
2019-03-20T09:46:52.335Z,29.70
2019-03-20T09:49:23.901Z,29.90
2019-03-20T09:51:55.659Z,30.00
2019-03-20T09:54:27.221Z,30.30
2019-03-20T09:56:59.359Z,29.30
2019-03-20T09:59:31.056Z,29.40
2019-03-20T10:02:03.948Z,29.70
2019-03-20T10:04:35.821Z,28.90
2019-03-20T10:07:08.095Z,28.70
2019-03-20T10:09:40.678Z,29.00
2019-03-20T10:12:11.957Z,29.80
2019-03-20T10:14:43.657Z,28.90
2019-03-20T10:17:17.341Z,29.20
2019-03-20T10:19:49.483Z,28.90
2019-03-20T10:22:21.202Z,28.20
2019-03-20T10:24:52.310Z,27.30
2019-03-20T10:27:23.445Z,27.50
2019-03-20T10:29:55.045Z,27.90
2019-03-20T10:32:26.807Z,28.50
2019-03-20T10:34:58.309Z,28.70
2019-03-20T10:37:29.965Z,28.50
2019-03-20T10:40:01.032Z,27.70
2019-03-20T10:42:32.875Z,27.40
2019-03-20T10:45:05.182Z,27.00
2019-03-20T10:47:36.999Z,27.10
2019-03-20T10:50:10.950Z,26.30
2019-03-20T10:52:42.661Z,25.90
2019-03-20T10:55:14.442Z,25.80
2019-03-20T10:57:46.220Z,27.10
2019-03-20T11:00:21.881Z,26.60
2019-03-20T11:02:54.206Z,26.10
2019-03-20T11:05:25.977Z,26.20
2019-03-20T11:07:58.295Z,26.60
2019-03-20T11:10:30.060Z,26.30
2019-03-20T11:13:02.007Z,26.40
2019-03-20T11:15:33.299Z,26.70
2019-03-20T11:18:05.322Z,26.40
2019-03-20T11:20:36.967Z,26.50
2019-03-20T11:23:08.965Z,25.90
2019-03-20T11:25:40.777Z,26.50
2019-03-20T11:28:13.130Z,27.20
2019-03-20T11:30:44.905Z,27.40
2019-03-20T11:33:16.674Z,27.80
2019-03-20T11:35:48.779Z,28.20
2019-03-20T11:38:20.529Z,28.80
2019-03-20T11:40:52.240Z,29.20
2019-03-20T11:43:24.131Z,29.30
2019-03-20T11:45:55.741Z,30.00
2019-03-20T11:48:27.579Z,29.10
2019-03-20T11:50:59.182Z,28.10
2019-03-20T11:53:30.675Z,27.40
2019-03-20T11:56:02.627Z,26.90
2019-03-20T11:58:34.183Z,26.90
2019-03-20T12:01:06.243Z,27.50
2019-03-20T12:03:38.051Z,27.40
2019-03-20T12:06:10.076Z,27.90
2019-03-20T12:08:41.691Z,28.20
2019-03-20T12:11:15.853Z,28.80
2019-03-20T12:13:46.171Z,28.10
2019-03-20T12:16:17.817Z,28.40
2019-03-20T12:18:50.741Z,28.20
2019-03-20T12:21:22.609Z,28.30
2019-03-20T12:23:54.400Z,28.80
2019-03-20T12:26:25.943Z,28.10
2019-03-20T12:28:59.216Z,27.30
2019-03-20T12:31:30.551Z,27.50
2019-03-20T12:34:02.425Z,27.80
2019-03-20T12:36:34.192Z,27.80
2019-03-20T12:39:08.903Z,27.50
2019-03-20T12:41:40.719Z,27.60
2019-03-20T12:44:12.530Z,27.90
2019-03-20T12:46:44.091Z,28.30
2019-03-20T12:49:15.627Z,28.50
2019-03-20T12:51:47.263Z,27.80
2019-03-20T12:54:19.027Z,28.60
2019-03-20T12:56:50.720Z,27.80
2019-03-20T12:59:22.166Z,28.20
2019-03-20T13:01:54.715Z,26.70
2019-03-20T13:04:26.321Z,26.60
2019-03-20T13:06:58.327Z,26.70
2019-03-20T13:09:30.260Z,26.90
2019-03-20T13:12:02.004Z,27.20
2019-03-20T13:14:33.898Z,26.80
2019-03-20T13:17:05.280Z,27.50
2019-03-20T13:19:36.844Z,28.00
2019-03-20T13:22:08.551Z,28.40
2019-03-20T13:24:41.526Z,28.90
2019-03-20T13:27:13.249Z,29.10
2019-03-20T13:29:44.977Z,29.70
2019-03-20T13:32:16.545Z,30.30
2019-03-20T13:34:48.072Z,29.80
2019-03-20T13:37:19.690Z,29.80
2019-03-20T13:39:51.365Z,30.00
2019-03-20T13:42:23.177Z,30.30
2019-03-20T13:44:54.771Z,30.50
2019-03-20T13:47:27.961Z,30.10
2019-03-20T13:49:59.536Z,30.70
2019-03-20T13:52:32.882Z,30.70
2019-03-20T13:55:04.642Z,30.90
2019-03-20T13:57:36.550Z,30.70
2019-03-20T14:00:14.892Z,31.10
2019-03-20T14:02:46.600Z,30.50
2019-03-20T14:05:17.924Z,31.30
2019-03-20T14:07:49.672Z,31.70
2019-03-20T14:10:25.565Z,32.70
2019-03-20T14:12:55.210Z,33.30
2019-03-20T14:15:26.605Z,34.30
2019-03-20T14:17:58.495Z,33.90
2019-03-20T14:20:29.997Z,34.30
2019-03-20T14:23:02.104Z,34.80
2019-03-20T14:25:34.269Z,34.70
2019-03-20T14:28:06.136Z,34.50
2019-03-20T14:30:37.789Z,34.90
2019-03-20T14:33:10.090Z,35.30
2019-03-20T14:35:48.351Z,35.80
2019-03-20T14:38:20.137Z,36.30
2019-03-20T14:40:51.725Z,36.20
2019-03-20T14:43:23.799Z,36.60
2019-03-20T14:45:54.752Z,37.40
2019-03-20T14:48:26.195Z,38.20
2019-03-20T14:50:57.205Z,38.50
2019-03-20T14:53:28.339Z,39.00
2019-03-20T14:55:59.475Z,39.40
2019-03-20T14:58:30.443Z,39.40
2019-03-20T15:01:51.426Z,39.50
2019-03-20T15:04:22.382Z,39.10
2019-03-20T15:06:54.252Z,39.60
2019-03-20T15:09:26.772Z,40.10
2019-03-20T15:11:59.443Z,40.10
2019-03-20T15:14:30.531Z,40.60
2019-03-20T15:17:02.051Z,40.30
2019-03-20T15:19:34.378Z,40.80
2019-03-20T15:22:05.614Z,41.10
2019-03-20T15:24:37.090Z,41.30
2019-03-20T15:27:09.200Z,41.40
2019-03-20T15:29:40.806Z,41.50
2019-03-20T15:32:12.825Z,41.50
2019-03-20T15:34:43.809Z,41.70
2019-03-20T15:37:15.100Z,42.10
2019-03-20T15:39:46.164Z,42.40
2019-03-20T15:42:17.383Z,42.90
2019-03-20T15:44:48.866Z,43.20
2019-03-20T15:47:19.945Z,43.40
2019-03-20T15:49:51.532Z,43.60
2019-03-20T15:52:22.913Z,43.90
2019-03-20T15:54:54.543Z,44.10
2019-03-20T15:57:26.338Z,44.10
2019-03-20T15:59:58.128Z,44.10
2019-03-20T16:02:30.631Z,44.00
2019-03-20T16:05:02.350Z,44.40
2019-03-20T16:07:34.223Z,44.80
2019-03-20T16:10:06.830Z,45.10
2019-03-20T16:12:38.606Z,45.50
2019-03-20T16:15:12.107Z,45.70
2019-03-20T16:17:43.176Z,46.10
2019-03-20T16:20:14.463Z,46.40
2019-03-20T16:22:46.216Z,47.10
2019-03-20T16:25:17.929Z,47.60
2019-03-20T16:27:49.911Z,48.00
2019-03-20T16:30:22.469Z,48.50
2019-03-20T16:32:53.755Z,49.30
2019-03-20T16:35:25.001Z,50.20
2019-03-20T16:37:56.270Z,50.40
2019-03-20T16:40:27.413Z,50.80
2019-03-20T16:42:59.107Z,51.20
2019-03-20T16:45:31.207Z,51.50
2019-03-20T16:48:02.232Z,51.70
2019-03-20T16:50:33.853Z,51.80
2019-03-20T16:53:05.163Z,52.20
2019-03-20T16:55:36.283Z,52.20
2019-03-20T16:58:07.592Z,52.40
2019-03-20T17:00:38.850Z,52.40
2019-03-20T17:03:10.045Z,52.60
2019-03-20T17:05:41.074Z,52.70
2019-03-20T17:08:12.714Z,52.70
2019-03-20T17:10:43.928Z,52.80
2019-03-20T17:13:15.152Z,52.80
2019-03-20T17:15:46.456Z,53.00
2019-03-20T17:18:18.206Z,52.90
2019-03-20T17:20:49.616Z,52.80
2019-03-20T17:23:20.709Z,53.00
2019-03-20T17:26:01.563Z,53.20
2019-03-20T17:28:41.929Z,53.20
2019-03-20T17:31:13.618Z,53.50
2019-03-20T17:33:45.321Z,54.20
2019-03-20T17:36:17.119Z,54.50
2019-03-20T17:38:49.595Z,54.90
2019-03-20T17:41:21.256Z,55.10
2019-03-20T17:43:53.039Z,55.40
2019-03-20T17:46:24.572Z,55.50
2019-03-20T17:48:56.355Z,55.70
2019-03-20T17:51:28.007Z,55.90
2019-03-20T17:53:59.974Z,56.00
2019-03-20T17:56:31.531Z,56.20
2019-03-20T17:59:03.414Z,56.20
2019-03-20T18:01:34.956Z,56.40
2019-03-20T18:04:06.340Z,56.60
2019-03-20T18:06:38.187Z,56.80
2019-03-20T18:09:10.837Z,57.00
2019-03-20T18:11:47.365Z,57.30
2019-03-20T18:14:15.677Z,57.50
2019-03-20T18:16:47.361Z,57.90
2019-03-20T18:19:19.986Z,58.30
2019-03-20T18:21:51.555Z,58.60
2019-03-20T18:24:23.229Z,59.20
2019-03-20T18:26:54.762Z,59.50
2019-03-20T18:29:26.659Z,60.40
2019-03-20T18:31:58.436Z,61.60
2019-03-20T18:34:30.446Z,62.20
2019-03-20T18:37:02.246Z,62.70
2019-03-20T18:39:33.619Z,63.10
2019-03-20T18:42:05.654Z,63.70
2019-03-20T18:44:37.501Z,64.30
2019-03-20T18:47:09.416Z,64.60
2019-03-20T18:49:41.177Z,65.10
2019-03-20T18:52:12.886Z,66.40
2019-03-20T18:54:44.482Z,66.00
2019-03-20T18:57:16.256Z,66.20
2019-03-20T18:59:48.004Z,66.30
2019-03-20T19:02:19.237Z,66.70
2019-03-20T19:04:50.987Z,67.30
2019-03-20T19:07:21.970Z,67.80
2019-03-20T19:09:53.776Z,68.40
2019-03-20T19:12:25.864Z,68.70
2019-03-20T19:14:57.529Z,69.00
2019-03-20T19:17:29.661Z,70.20
2019-03-20T19:20:00.800Z,70.20
2019-03-20T19:22:32.478Z,70.90
2019-03-20T19:25:04.672Z,72.20
2019-03-20T19:27:35.622Z,72.10
2019-03-20T19:30:11.761Z,72.50
2019-03-20T19:32:43.117Z,72.70
2019-03-20T19:35:15.610Z,73.00
2019-03-20T19:37:46.952Z,73.30
2019-03-20T19:40:18.854Z,73.40
2019-03-20T19:42:50.400Z,73.70
2019-03-20T19:45:22.169Z,73.90
2019-03-20T19:47:53.473Z,73.90
2019-03-20T19:50:24.794Z,74.40
2019-03-20T19:52:55.780Z,74.50
2019-03-20T19:55:27.041Z,74.70
2019-03-20T19:57:58.455Z,74.70
2019-03-20T20:00:30.138Z,74.70
2019-03-20T20:03:01.654Z,74.70
2019-03-20T20:05:33.523Z,74.70
2019-03-20T20:08:04.792Z,74.80
2019-03-20T20:10:36.047Z,75.00
2019-03-20T20:13:07.771Z,74.80
2019-03-20T20:15:39.617Z,74.80
2019-03-20T20:18:11.279Z,74.70
2019-03-20T20:20:43.201Z,74.60
2019-03-20T20:23:14.780Z,74.50
2019-03-20T20:25:46.717Z,74.40
2019-03-20T20:28:18.300Z,74.30
2019-03-20T20:30:50.199Z,74.30
2019-03-20T20:33:21.301Z,74.60
2019-03-20T20:35:53.074Z,74.40
2019-03-20T20:38:24.730Z,74.30
2019-03-20T20:40:56.643Z,74.50
2019-03-20T20:43:27.740Z,74.80
2019-03-20T20:45:59.265Z,74.60
2019-03-20T20:48:30.697Z,74.80
2019-03-20T20:51:02.016Z,74.90
2019-03-20T20:53:33.619Z,75.00
2019-03-20T20:56:05.044Z,75.00
2019-03-20T20:58:36.072Z,75.50
2019-03-20T21:01:07.435Z,74.90
2019-03-20T21:03:38.935Z,74.80
2019-03-20T21:06:10.159Z,74.90
2019-03-20T21:08:41.104Z,74.80
2019-03-20T21:11:12.095Z,74.70
2019-03-20T21:13:43.120Z,74.70
2019-03-20T21:16:16.041Z,74.50
2019-03-20T21:19:23.692Z,74.30
2019-03-20T21:22:32.655Z,74.10
2019-03-20T21:25:04.377Z,73.60
2019-03-20T21:28:29.346Z,73.10
2019-03-20T21:31:34.284Z,72.70
2019-03-20T21:34:54.920Z,72.40
2019-03-20T21:38:02.425Z,72.10
2019-03-20T21:40:56.204Z,71.90
2019-03-20T21:43:49.312Z,71.60
2019-03-20T21:46:59.648Z,71.60
2019-03-20T21:49:31.344Z,71.50
2019-03-20T21:52:03.024Z,72.10
2019-03-20T21:55:27.231Z,71.50
2019-03-20T21:58:18.080Z,71.40
2019-03-20T22:01:26.684Z,71.30
2019-03-20T22:03:58.376Z,71.10
2019-03-20T22:07:22.697Z,71.20
2019-03-20T22:10:33.179Z,71.00
2019-03-20T22:13:33.694Z,70.80
2019-03-20T22:16:54.884Z,70.70
2019-03-20T22:20:05.302Z,70.50
2019-03-20T22:23:26.621Z,70.30
2019-03-20T22:26:36.934Z,70.10
2019-03-20T22:29:26.112Z,70.10
2019-03-20T22:32:43.859Z,70.20
2019-03-20T22:35:22.473Z,70.20
2019-03-20T22:37:54.287Z,69.90
2019-03-20T22:41:12.668Z,69.70
2019-03-20T22:43:49.038Z,69.40
2019-03-20T22:47:09.277Z,69.20
2019-03-20T22:50:05.684Z,69.10
2019-03-20T22:53:22.465Z,69.00
2019-03-20T22:56:25.480Z,69.10
2019-03-20T22:58:57.064Z,69.50
2019-03-20T23:01:40.311Z,69.40
2019-03-20T23:04:33.827Z,69.30
2019-03-20T23:07:05.456Z,69.50
2019-03-20T23:09:37.157Z,69.50
2019-03-20T23:12:11.926Z,69.50
2019-03-20T23:14:43.470Z,69.50
2019-03-20T23:17:16.163Z,69.40
2019-03-20T23:19:48.451Z,69.30
2019-03-20T23:22:20.554Z,69.20
2019-03-20T23:24:52.562Z,69.10
2019-03-20T23:27:30.335Z,69.30
2019-03-20T23:30:02.676Z,69.40
2019-03-20T23:32:35.367Z,69.50
2019-03-20T23:35:07.497Z,69.50
2019-03-20T23:37:39.159Z,69.20
2019-03-20T23:40:12.411Z,69.20
2019-03-20T23:42:45.058Z,69.20
2019-03-20T23:45:17.612Z,69.40
2019-03-20T23:48:25.079Z,69.40
2019-03-20T23:51:00.386Z,69.40
2019-03-20T23:53:33.389Z,69.30
2019-03-20T23:56:05.273Z,69.30
2019-03-20T23:58:36.984Z,69.50
